sensor_id;sensor_type;location;lat;lon;timestamp;P1;durP1;ratioP1;P2;durP2;ratioP2
11531;SDS011;5822;51.000;5.874;2023-10-09T00:00:57;13.95;;;13.25;;
11531;SDS011;5822;51.000;5.874;2023-10-09T00:03:39;13.70;;;13.00;;
11531;SDS011;5822;51.000;5.874;2023-10-09T00:06:06;13.70;;;13.00;;
11531;SDS011;5822;51.000;5.874;2023-10-09T00:08:32;13.90;;;13.20;;
11531;SDS011;5822;51.000;5.874;2023-10-09T00:11:00;13.50;;;12.80;;
11531;SDS011;5822;51.000;5.874;2023-10-09T00:13:40;13.73;;;13.02;;
11531;SDS011;5822;51.000;5.874;2023-10-09T00:16:14;14.00;;;13.30;;
11531;SDS011;5822;51.000;5.874;2023-10-09T00:19:03;13.85;;;13.15;;
11531;SDS011;5822;51.000;5.874;2023-10-09T00:21:42;13.13;;;12.52;;
11531;SDS011;5822;51.000;5.874;2023-10-09T00:24:09;13.45;;;12.75;;
11531;SDS011;5822;51.000;5.874;2023-10-09T00:26:48;13.10;;;12.50;;
11531;SDS011;5822;51.000;5.874;2023-10-09T00:29:20;13.27;;;12.57;;
11531;SDS011;5822;51.000;5.874;2023-10-09T00:31:48;13.25;;;12.55;;
11531;SDS011;5822;51.000;5.874;2023-10-09T00:34:42;13.20;;;12.50;;
11531;SDS011;5822;51.000;5.874;2023-10-09T00:37:08;13.15;;;12.55;;
11531;SDS011;5822;51.000;5.874;2023-10-09T00:39:52;12.90;;;12.30;;
11531;SDS011;5822;51.000;5.874;2023-10-09T00:42:22;13.48;;;12.77;;
11531;SDS011;5822;51.000;5.874;2023-10-09T00:44:54;12.90;;;12.30;;
11531;SDS011;5822;51.000;5.874;2023-10-09T00:47:21;12.73;;;12.13;;
11531;SDS011;5822;51.000;5.874;2023-10-09T00:50:08;12.80;;;12.20;;
11531;SDS011;5822;51.000;5.874;2023-10-09T00:52:41;13.00;;;12.40;;
11531;SDS011;5822;51.000;5.874;2023-10-09T00:55:19;13.20;;;12.50;;
11531;SDS011;5822;51.000;5.874;2023-10-09T00:58:17;13.40;;;12.70;;
11531;SDS011;5822;51.000;5.874;2023-10-09T01:00:48;13.23;;;12.52;;
11531;SDS011;5822;51.000;5.874;2023-10-09T01:03:17;13.18;;;12.57;;
11531;SDS011;5822;51.000;5.874;2023-10-09T01:08:24;12.90;;;12.30;;
11531;SDS011;5822;51.000;5.874;2023-10-09T01:11:06;12.90;;;12.30;;
11531;SDS011;5822;51.000;5.874;2023-10-09T01:13:36;12.85;;;12.15;;
11531;SDS011;5822;51.000;5.874;2023-10-09T01:16:11;13.05;;;12.40;;
11531;SDS011;5822;51.000;5.874;2023-10-09T01:18:41;12.80;;;12.20;;
11531;SDS011;5822;51.000;5.874;2023-10-09T01:21:08;13.73;;;13.03;;
11531;SDS011;5822;51.000;5.874;2023-10-09T01:23:39;13.00;;;12.40;;
11531;SDS011;5822;51.000;5.874;2023-10-09T01:26:26;13.52;;;12.82;;
11531;SDS011;5822;51.000;5.874;2023-10-09T01:29:08;13.00;;;12.40;;
11531;SDS011;5822;51.000;5.874;2023-10-09T01:31:45;12.93;;;12.32;;
11531;SDS011;5822;51.000;5.874;2023-10-09T01:37:02;12.65;;;12.05;;
11531;SDS011;5822;51.000;5.874;2023-10-09T01:39:30;12.75;;;12.15;;
11531;SDS011;5822;51.000;5.874;2023-10-09T01:41:56;13.20;;;12.50;;
11531;SDS011;5822;51.000;5.874;2023-10-09T01:44:26;13.43;;;12.73;;
11531;SDS011;5822;51.000;5.874;2023-10-09T01:46:59;13.30;;;12.63;;
11531;SDS011;5822;51.000;5.874;2023-10-09T01:49:35;13.18;;;12.50;;
11531;SDS011;5822;51.000;5.874;2023-10-09T01:52:06;13.18;;;12.52;;
11531;SDS011;5822;51.000;5.874;2023-10-09T01:54:38;13.05;;;12.45;;
11531;SDS011;5822;51.000;5.874;2023-10-09T01:57:06;12.95;;;12.35;;
11531;SDS011;5822;51.000;5.874;2023-10-09T01:59:39;12.60;;;12.00;;
11531;SDS011;5822;51.000;5.874;2023-10-09T02:02:09;12.75;;;12.13;;
11531;SDS011;5822;51.000;5.874;2023-10-09T02:04:54;12.90;;;12.20;;
11531;SDS011;5822;51.000;5.874;2023-10-09T02:07:30;12.98;;;12.38;;
11531;SDS011;5822;51.000;5.874;2023-10-09T02:10:05;13.43;;;12.73;;
11531;SDS011;5822;51.000;5.874;2023-10-09T02:12:47;13.68;;;12.98;;
11531;SDS011;5822;51.000;5.874;2023-10-09T02:15:22;13.70;;;13.00;;
11531;SDS011;5822;51.000;5.874;2023-10-09T02:18:19;14.40;;;13.60;;
11531;SDS011;5822;51.000;5.874;2023-10-09T02:20:49;13.60;;;12.90;;
11531;SDS011;5822;51.000;5.874;2023-10-09T02:23:27;13.48;;;12.77;;
11531;SDS011;5822;51.000;5.874;2023-10-09T02:26:12;13.73;;;13.02;;
11531;SDS011;5822;51.000;5.874;2023-10-09T02:28:50;13.77;;;13.07;;
11531;SDS011;5822;51.000;5.874;2023-10-09T02:31:38;13.80;;;13.10;;
11531;SDS011;5822;51.000;5.874;2023-10-09T02:34:11;13.98;;;13.27;;
11531;SDS011;5822;51.000;5.874;2023-10-09T02:36:37;14.00;;;13.30;;
11531;SDS011;5822;51.000;5.874;2023-10-09T02:39:06;14.18;;;13.48;;
11531;SDS011;5822;51.000;5.874;2023-10-09T02:41:51;13.88;;;13.18;;
11531;SDS011;5822;51.000;5.874;2023-10-09T02:44:27;13.85;;;13.15;;
11531;SDS011;5822;51.000;5.874;2023-10-09T02:46:57;13.73;;;13.02;;
11531;SDS011;5822;51.000;5.874;2023-10-09T02:49:23;13.55;;;12.85;;
11531;SDS011;5822;51.000;5.874;2023-10-09T02:51:49;13.90;;;13.20;;
11531;SDS011;5822;51.000;5.874;2023-10-09T02:54:18;13.75;;;13.05;;
11531;SDS011;5822;51.000;5.874;2023-10-09T02:56:47;13.63;;;12.93;;
11531;SDS011;5822;51.000;5.874;2023-10-09T02:59:32;14.30;;;13.60;;
11531;SDS011;5822;51.000;5.874;2023-10-09T03:02:09;14.40;;;13.70;;
11531;SDS011;5822;51.000;5.874;2023-10-09T03:04:36;14.65;;;13.90;;
11531;SDS011;5822;51.000;5.874;2023-10-09T03:07:04;14.05;;;13.35;;
11531;SDS011;5822;51.000;5.874;2023-10-09T03:09:30;13.55;;;12.85;;
11531;SDS011;5822;51.000;5.874;2023-10-09T03:12:00;13.68;;;12.98;;
11531;SDS011;5822;51.000;5.874;2023-10-09T03:14:27;14.53;;;13.73;;
11531;SDS011;5822;51.000;5.874;2023-10-09T03:17:00;14.40;;;13.60;;
11531;SDS011;5822;51.000;5.874;2023-10-09T03:19:27;14.30;;;13.60;;
11531;SDS011;5822;51.000;5.874;2023-10-09T03:21:54;14.32;;;13.63;;
11531;SDS011;5822;51.000;5.874;2023-10-09T03:24:22;14.33;;;13.63;;
11531;SDS011;5822;51.000;5.874;2023-10-09T03:26:49;14.40;;;13.70;;
11531;SDS011;5822;51.000;5.874;2023-10-09T03:29:15;14.90;;;14.10;;
11531;SDS011;5822;51.000;5.874;2023-10-09T03:31:44;14.70;;;13.90;;
11531;SDS011;5822;51.000;5.874;2023-10-09T03:34:11;14.73;;;13.93;;
11531;SDS011;5822;51.000;5.874;2023-10-09T03:36:37;14.47;;;13.77;;
11531;SDS011;5822;51.000;5.874;2023-10-09T03:39:06;15.13;;;14.32;;
11531;SDS011;5822;51.000;5.874;2023-10-09T03:41:55;15.23;;;14.43;;
11531;SDS011;5822;51.000;5.874;2023-10-09T03:44:23;15.10;;;14.30;;
11531;SDS011;5822;51.000;5.874;2023-10-09T03:46:53;14.98;;;14.18;;
11531;SDS011;5822;51.000;5.874;2023-10-09T03:49:18;15.30;;;14.50;;
11531;SDS011;5822;51.000;5.874;2023-10-09T03:51:48;14.30;;;13.60;;
11531;SDS011;5822;51.000;5.874;2023-10-09T03:54:15;14.40;;;13.60;;
11531;SDS011;5822;51.000;5.874;2023-10-09T03:56:42;14.70;;;13.90;;
11531;SDS011;5822;51.000;5.874;2023-10-09T03:59:08;14.50;;;13.80;;
11531;SDS011;5822;51.000;5.874;2023-10-09T04:01:35;14.85;;;14.05;;
11531;SDS011;5822;51.000;5.874;2023-10-09T04:04:04;14.65;;;13.85;;
11531;SDS011;5822;51.000;5.874;2023-10-09T04:06:35;14.70;;;13.93;;
11531;SDS011;5822;51.000;5.874;2023-10-09T04:11:55;15.20;;;14.40;;
11531;SDS011;5822;51.000;5.874;2023-10-09T04:14:39;15.43;;;14.60;;
11531;SDS011;5822;51.000;5.874;2023-10-09T04:17:14;15.63;;;14.83;;
11531;SDS011;5822;51.000;5.874;2023-10-09T04:19:59;15.50;;;14.70;;
11531;SDS011;5822;51.000;5.874;2023-10-09T04:22:43;15.13;;;14.32;;
11531;SDS011;5822;51.000;5.874;2023-10-09T04:25:22;15.52;;;14.73;;
11531;SDS011;5822;51.000;5.874;2023-10-09T04:27:57;15.43;;;14.63;;
11531;SDS011;5822;51.000;5.874;2023-10-09T04:30:43;16.00;;;15.10;;
11531;SDS011;5822;51.000;5.874;2023-10-09T04:33:09;15.52;;;14.73;;
11531;SDS011;5822;51.000;5.874;2023-10-09T04:36:09;15.40;;;14.60;;
11531;SDS011;5822;51.000;5.874;2023-10-09T04:38:57;15.95;;;15.05;;
11531;SDS011;5822;51.000;5.874;2023-10-09T04:41:29;16.35;;;15.45;;
11531;SDS011;5822;51.000;5.874;2023-10-09T04:44:04;15.23;;;14.43;;
11531;SDS011;5822;51.000;5.874;2023-10-09T04:46:49;15.85;;;15.00;;
11531;SDS011;5822;51.000;5.874;2023-10-09T04:49:35;15.35;;;14.55;;
11531;SDS011;5822;51.000;5.874;2023-10-09T04:52:28;15.65;;;14.85;;
11531;SDS011;5822;51.000;5.874;2023-10-09T04:54:54;16.20;;;15.30;;
11531;SDS011;5822;51.000;5.874;2023-10-09T04:57:31;15.50;;;14.70;;
11531;SDS011;5822;51.000;5.874;2023-10-09T05:00:38;16.17;;;15.27;;
11531;SDS011;5822;51.000;5.874;2023-10-09T05:03:07;15.77;;;14.98;;
11531;SDS011;5822;51.000;5.874;2023-10-09T05:05:36;16.27;;;15.38;;
11531;SDS011;5822;51.000;5.874;2023-10-09T05:10:53;16.00;;;15.10;;
11531;SDS011;5822;51.000;5.874;2023-10-09T05:13:33;15.68;;;14.77;;
11531;SDS011;5822;51.000;5.874;2023-10-09T05:16:05;16.00;;;15.10;;
11531;SDS011;5822;51.000;5.874;2023-10-09T05:18:47;16.10;;;15.27;;
11531;SDS011;5822;51.000;5.874;2023-10-09T05:21:33;15.82;;;14.93;;
11531;SDS011;5822;51.000;5.874;2023-10-09T05:24:05;16.13;;;15.23;;
11531;SDS011;5822;51.000;5.874;2023-10-09T05:26:37;16.20;;;15.30;;
11531;SDS011;5822;51.000;5.874;2023-10-09T05:29:16;15.88;;;14.98;;
11531;SDS011;5822;51.000;5.874;2023-10-09T05:31:49;16.65;;;15.75;;
11531;SDS011;5822;51.000;5.874;2023-10-09T05:34:34;16.38;;;15.48;;
11531;SDS011;5822;51.000;5.874;2023-10-09T05:37:05;17.00;;;16.00;;
11531;SDS011;5822;51.000;5.874;2023-10-09T05:39:47;16.38;;;15.48;;
11531;SDS011;5822;51.000;5.874;2023-10-09T05:42:26;16.30;;;15.40;;
11531;SDS011;5822;51.000;5.874;2023-10-09T05:45:15;16.00;;;15.10;;
11531;SDS011;5822;51.000;5.874;2023-10-09T05:47:41;16.05;;;15.15;;
11531;SDS011;5822;51.000;5.874;2023-10-09T05:50:32;16.15;;;15.25;;
11531;SDS011;5822;51.000;5.874;2023-10-09T05:53:03;16.50;;;15.60;;
11531;SDS011;5822;51.000;5.874;2023-10-09T05:55:29;16.23;;;15.32;;
11531;SDS011;5822;51.000;5.874;2023-10-09T05:58:13;16.40;;;15.50;;
11531;SDS011;5822;51.000;5.874;2023-10-09T06:00:58;16.10;;;15.20;;
11531;SDS011;5822;51.000;5.874;2023-10-09T06:03:42;21.45;;;20.35;;
11531;SDS011;5822;51.000;5.874;2023-10-09T06:06:19;22.35;;;21.25;;
11531;SDS011;5822;51.000;5.874;2023-10-09T06:09:01;21.33;;;20.13;;
11531;SDS011;5822;51.000;5.874;2023-10-09T06:11:40;21.77;;;20.67;;
11531;SDS011;5822;51.000;5.874;2023-10-09T06:14:14;21.63;;;20.52;;
11531;SDS011;5822;51.000;5.874;2023-10-09T06:16:50;20.40;;;19.40;;
11531;SDS011;5822;51.000;5.874;2023-10-09T06:19:22;18.75;;;17.85;;
11531;SDS011;5822;51.000;5.874;2023-10-09T06:21:53;18.57;;;17.67;;
11531;SDS011;5822;51.000;5.874;2023-10-09T06:24:39;18.45;;;17.55;;
11531;SDS011;5822;51.000;5.874;2023-10-09T06:27:08;19.05;;;18.05;;
11531;SDS011;5822;51.000;5.874;2023-10-09T06:29:38;19.90;;;18.90;;
11531;SDS011;5822;51.000;5.874;2023-10-09T06:32:11;17.23;;;16.23;;
11531;SDS011;5822;51.000;5.874;2023-10-09T06:35:01;16.60;;;15.70;;
11531;SDS011;5822;51.000;5.874;2023-10-09T06:37:49;16.75;;;15.85;;
11531;SDS011;5822;51.000;5.874;2023-10-09T06:40:32;17.30;;;16.30;;
11531;SDS011;5822;51.000;5.874;2023-10-09T06:43:16;17.80;;;16.80;;
11531;SDS011;5822;51.000;5.874;2023-10-09T06:45:42;17.40;;;16.40;;
11531;SDS011;5822;51.000;5.874;2023-10-09T06:48:09;17.80;;;16.83;;
11531;SDS011;5822;51.000;5.874;2023-10-09T06:51:05;17.30;;;16.40;;
11531;SDS011;5822;51.000;5.874;2023-10-09T06:53:50;17.83;;;16.83;;
11531;SDS011;5822;51.000;5.874;2023-10-09T06:56:27;17.23;;;16.33;;
11531;SDS011;5822;51.000;5.874;2023-10-09T06:58:54;18.08;;;17.08;;
11531;SDS011;5822;51.000;5.874;2023-10-09T07:01:24;18.45;;;17.40;;
11531;SDS011;5822;51.000;5.874;2023-10-09T07:03:56;17.90;;;16.90;;
11531;SDS011;5822;51.000;5.874;2023-10-09T07:06:35;17.98;;;16.98;;
11531;SDS011;5822;51.000;5.874;2023-10-09T07:09:01;17.02;;;16.13;;
11531;SDS011;5822;51.000;5.874;2023-10-09T07:11:40;17.95;;;16.95;;
11531;SDS011;5822;51.000;5.874;2023-10-09T07:16:32;17.13;;;16.23;;
11531;SDS011;5822;51.000;5.874;2023-10-09T07:19:05;18.10;;;17.10;;
11531;SDS011;5822;51.000;5.874;2023-10-09T07:21:49;17.27;;;16.38;;
11531;SDS011;5822;51.000;5.874;2023-10-09T07:24:19;17.38;;;16.48;;
11531;SDS011;5822;51.000;5.874;2023-10-09T07:27:03;17.40;;;16.50;;
11531;SDS011;5822;51.000;5.874;2023-10-09T07:29:39;18.27;;;17.27;;
11531;SDS011;5822;51.000;5.874;2023-10-09T07:32:14;17.40;;;16.50;;
11531;SDS011;5822;51.000;5.874;2023-10-09T07:34:47;17.80;;;16.80;;
11531;SDS011;5822;51.000;5.874;2023-10-09T07:37:31;18.40;;;17.40;;
11531;SDS011;5822;51.000;5.874;2023-10-09T07:40:03;17.27;;;16.38;;
11531;SDS011;5822;51.000;5.874;2023-10-09T07:42:33;18.15;;;17.15;;
11531;SDS011;5822;51.000;5.874;2023-10-09T07:45:01;17.70;;;16.70;;
11531;SDS011;5822;51.000;5.874;2023-10-09T07:47:50;17.83;;;16.83;;
11531;SDS011;5822;51.000;5.874;2023-10-09T07:50:36;17.35;;;16.40;;
11531;SDS011;5822;51.000;5.874;2023-10-09T07:53:05;17.75;;;16.80;;
11531;SDS011;5822;51.000;5.874;2023-10-09T07:55:45;17.95;;;16.95;;
11531;SDS011;5822;51.000;5.874;2023-10-09T07:58:22;17.75;;;16.77;;
11531;SDS011;5822;51.000;5.874;2023-10-09T08:00:54;17.90;;;16.90;;
11531;SDS011;5822;51.000;5.874;2023-10-09T08:03:23;18.05;;;17.05;;
11531;SDS011;5822;51.000;5.874;2023-10-09T08:05:52;17.88;;;16.88;;
11531;SDS011;5822;51.000;5.874;2023-10-09T08:08:31;17.80;;;16.80;;
11531;SDS011;5822;51.000;5.874;2023-10-09T08:10:58;17.50;;;16.50;;
11531;SDS011;5822;51.000;5.874;2023-10-09T08:13:43;18.10;;;17.10;;
11531;SDS011;5822;51.000;5.874;2023-10-09T08:16:15;17.80;;;16.80;;
11531;SDS011;5822;51.000;5.874;2023-10-09T08:18:47;17.73;;;16.73;;
11531;SDS011;5822;51.000;5.874;2023-10-09T08:21:16;17.48;;;16.58;;
11531;SDS011;5822;51.000;5.874;2023-10-09T08:23:43;17.10;;;16.20;;
11531;SDS011;5822;51.000;5.874;2023-10-09T08:26:15;17.08;;;16.17;;
11531;SDS011;5822;51.000;5.874;2023-10-09T08:28:54;16.85;;;15.95;;
11531;SDS011;5822;51.000;5.874;2023-10-09T08:31:40;16.90;;;16.00;;
11531;SDS011;5822;51.000;5.874;2023-10-09T08:34:12;17.45;;;16.55;;
11531;SDS011;5822;51.000;5.874;2023-10-09T08:37:05;17.83;;;16.83;;
11531;SDS011;5822;51.000;5.874;2023-10-09T08:39:30;18.80;;;17.70;;
11531;SDS011;5822;51.000;5.874;2023-10-09T08:42:00;18.75;;;17.65;;
11531;SDS011;5822;51.000;5.874;2023-10-09T08:44:28;18.50;;;17.50;;
11531;SDS011;5822;51.000;5.874;2023-10-09T08:46:58;17.98;;;16.98;;
11531;SDS011;5822;51.000;5.874;2023-10-09T08:49:25;17.63;;;16.63;;
11531;SDS011;5822;51.000;5.874;2023-10-09T08:51:52;17.50;;;16.52;;
11531;SDS011;5822;51.000;5.874;2023-10-09T08:54:19;17.60;;;16.65;;
11531;SDS011;5822;51.000;5.874;2023-10-09T08:56:45;17.42;;;16.48;;
11531;SDS011;5822;51.000;5.874;2023-10-09T08:59:19;17.87;;;16.87;;
11531;SDS011;5822;51.000;5.874;2023-10-09T09:01:46;18.70;;;17.60;;
11531;SDS011;5822;51.000;5.874;2023-10-09T09:04:33;18.90;;;17.83;;
11531;SDS011;5822;51.000;5.874;2023-10-09T09:07:06;18.25;;;17.25;;
11531;SDS011;5822;51.000;5.874;2023-10-09T09:09:59;17.92;;;16.92;;
11531;SDS011;5822;51.000;5.874;2023-10-09T09:12:49;18.23;;;17.23;;
11531;SDS011;5822;51.000;5.874;2023-10-09T09:15:28;18.55;;;17.55;;
11531;SDS011;5822;51.000;5.874;2023-10-09T09:18:04;17.85;;;16.85;;
11531;SDS011;5822;51.000;5.874;2023-10-09T09:20:31;17.80;;;16.80;;
11531;SDS011;5822;51.000;5.874;2023-10-09T09:23:05;17.48;;;16.48;;
11531;SDS011;5822;51.000;5.874;2023-10-09T09:25:41;17.95;;;16.95;;
11531;SDS011;5822;51.000;5.874;2023-10-09T09:28:14;17.52;;;16.60;;
11531;SDS011;5822;51.000;5.874;2023-10-09T09:30:46;18.30;;;17.20;;
11531;SDS011;5822;51.000;5.874;2023-10-09T09:33:23;18.83;;;17.73;;
11531;SDS011;5822;51.000;5.874;2023-10-09T09:36:05;18.75;;;17.70;;
11531;SDS011;5822;51.000;5.874;2023-10-09T09:38:32;17.95;;;16.95;;
11531;SDS011;5822;51.000;5.874;2023-10-09T09:41:13;18.50;;;17.42;;
11531;SDS011;5822;51.000;5.874;2023-10-09T09:43:57;18.50;;;17.40;;
11531;SDS011;5822;51.000;5.874;2023-10-09T09:46:31;18.27;;;17.27;;
11531;SDS011;5822;51.000;5.874;2023-10-09T09:49:05;18.10;;;17.10;;
11531;SDS011;5822;51.000;5.874;2023-10-09T09:51:41;18.83;;;17.73;;
11531;SDS011;5822;51.000;5.874;2023-10-09T09:54:10;18.73;;;17.65;;
11531;SDS011;5822;51.000;5.874;2023-10-09T09:56:40;17.92;;;16.98;;
11531;SDS011;5822;51.000;5.874;2023-10-09T09:59:15;17.40;;;16.50;;
11531;SDS011;5822;51.000;5.874;2023-10-09T10:01:52;17.63;;;16.63;;
11531;SDS011;5822;51.000;5.874;2023-10-09T10:04:31;18.20;;;17.20;;
11531;SDS011;5822;51.000;5.874;2023-10-09T10:07:00;17.20;;;16.30;;
11531;SDS011;5822;51.000;5.874;2023-10-09T10:09:34;17.20;;;16.30;;
11531;SDS011;5822;51.000;5.874;2023-10-09T10:12:07;17.15;;;16.25;;
11531;SDS011;5822;51.000;5.874;2023-10-09T10:20:26;17.88;;;16.88;;
11531;SDS011;5822;51.000;5.874;2023-10-09T10:25:44;17.70;;;16.70;;
11531;SDS011;5822;51.000;5.874;2023-10-09T10:28:22;17.80;;;16.80;;
11531;SDS011;5822;51.000;5.874;2023-10-09T10:31:09;18.05;;;17.05;;
11531;SDS011;5822;51.000;5.874;2023-10-09T10:36:23;17.90;;;16.90;;
11531;SDS011;5822;51.000;5.874;2023-10-09T10:39:07;18.20;;;17.20;;
11531;SDS011;5822;51.000;5.874;2023-10-09T10:41:57;18.23;;;17.23;;
11531;SDS011;5822;51.000;5.874;2023-10-09T10:44:29;18.58;;;17.48;;
11531;SDS011;5822;51.000;5.874;2023-10-09T10:46:59;17.97;;;16.97;;
11531;SDS011;5822;51.000;5.874;2023-10-09T10:49:26;17.80;;;16.80;;
11531;SDS011;5822;51.000;5.874;2023-10-09T10:52:01;18.30;;;17.30;;
11531;SDS011;5822;51.000;5.874;2023-10-09T10:54:43;17.95;;;16.95;;
11531;SDS011;5822;51.000;5.874;2023-10-09T10:57:15;17.20;;;16.30;;
11531;SDS011;5822;51.000;5.874;2023-10-09T10:59:53;17.17;;;16.23;;
11531;SDS011;5822;51.000;5.874;2023-10-09T11:02:37;17.65;;;16.65;;
11531;SDS011;5822;51.000;5.874;2023-10-09T11:05:05;17.70;;;16.70;;
11531;SDS011;5822;51.000;5.874;2023-10-09T11:07:49;18.38;;;17.38;;
11531;SDS011;5822;51.000;5.874;2023-10-09T11:10:21;18.40;;;17.40;;
11531;SDS011;5822;51.000;5.874;2023-10-09T11:12:56;17.88;;;16.98;;
11531;SDS011;5822;51.000;5.874;2023-10-09T11:15:42;19.00;;;18.05;;
11531;SDS011;5822;51.000;5.874;2023-10-09T11:18:22;18.98;;;17.98;;
11531;SDS011;5822;51.000;5.874;2023-10-09T11:20:53;19.13;;;18.13;;
11531;SDS011;5822;51.000;5.874;2023-10-09T11:23:28;18.50;;;17.60;;
11531;SDS011;5822;51.000;5.874;2023-10-09T11:26:02;19.02;;;18.02;;
11531;SDS011;5822;51.000;5.874;2023-10-09T11:32:00;18.83;;;17.83;;
11531;SDS011;5822;51.000;5.874;2023-10-09T11:34:26;18.48;;;17.58;;
11531;SDS011;5822;51.000;5.874;2023-10-09T11:36:59;18.80;;;17.90;;
11531;SDS011;5822;51.000;5.874;2023-10-09T11:39:37;19.08;;;18.08;;
11531;SDS011;5822;51.000;5.874;2023-10-09T11:42:17;19.20;;;18.20;;
11531;SDS011;5822;51.000;5.874;2023-10-09T11:45:01;18.55;;;17.65;;
11531;SDS011;5822;51.000;5.874;2023-10-09T11:47:45;19.00;;;18.00;;
11531;SDS011;5822;51.000;5.874;2023-10-09T11:53:41;19.10;;;18.10;;
11531;SDS011;5822;51.000;5.874;2023-10-09T11:56:08;19.88;;;18.77;;
11531;SDS011;5822;51.000;5.874;2023-10-09T11:58:39;18.70;;;17.70;;
11531;SDS011;5822;51.000;5.874;2023-10-09T12:01:10;19.88;;;18.88;;
11531;SDS011;5822;51.000;5.874;2023-10-09T12:03:42;19.70;;;18.70;;
11531;SDS011;5822;51.000;5.874;2023-10-09T12:06:09;19.55;;;18.55;;
11531;SDS011;5822;51.000;5.874;2023-10-09T12:08:38;20.20;;;19.20;;
11531;SDS011;5822;51.000;5.874;2023-10-09T12:11:07;20.08;;;19.08;;
11531;SDS011;5822;51.000;5.874;2023-10-09T12:13:37;19.80;;;18.80;;
11531;SDS011;5822;51.000;5.874;2023-10-09T12:16:03;19.83;;;18.83;;
11531;SDS011;5822;51.000;5.874;2023-10-09T12:18:35;19.20;;;18.30;;
11531;SDS011;5822;51.000;5.874;2023-10-09T12:21:04;19.85;;;18.85;;
11531;SDS011;5822;51.000;5.874;2023-10-09T12:23:31;19.00;;;18.00;;
11531;SDS011;5822;51.000;5.874;2023-10-09T12:26:03;19.30;;;18.20;;
11531;SDS011;5822;51.000;5.874;2023-10-09T12:28:29;19.55;;;18.55;;
11531;SDS011;5822;51.000;5.874;2023-10-09T12:30:58;19.25;;;18.25;;
11531;SDS011;5822;51.000;5.874;2023-10-09T12:33:26;19.60;;;18.60;;
11531;SDS011;5822;51.000;5.874;2023-10-09T12:35:53;19.02;;;18.08;;
11531;SDS011;5822;51.000;5.874;2023-10-09T12:38:26;18.80;;;17.80;;
11531;SDS011;5822;51.000;5.874;2023-10-09T12:41:05;19.20;;;18.20;;
11531;SDS011;5822;51.000;5.874;2023-10-09T12:43:48;18.35;;;17.45;;
11531;SDS011;5822;51.000;5.874;2023-10-09T12:46:14;17.92;;;17.02;;
11531;SDS011;5822;51.000;5.874;2023-10-09T12:48:42;18.40;;;17.40;;
11531;SDS011;5822;51.000;5.874;2023-10-09T12:51:11;18.23;;;17.23;;
11531;SDS011;5822;51.000;5.874;2023-10-09T12:53:41;17.80;;;16.90;;
11531;SDS011;5822;51.000;5.874;2023-10-09T12:56:11;18.03;;;17.13;;
11531;SDS011;5822;51.000;5.874;2023-10-09T12:58:40;18.25;;;17.25;;
11531;SDS011;5822;51.000;5.874;2023-10-09T13:01:17;18.25;;;17.25;;
11531;SDS011;5822;51.000;5.874;2023-10-09T13:03:44;17.90;;;16.90;;
11531;SDS011;5822;51.000;5.874;2023-10-09T13:06:14;17.27;;;16.38;;
11531;SDS011;5822;51.000;5.874;2023-10-09T13:08:40;17.23;;;16.33;;
11531;SDS011;5822;51.000;5.874;2023-10-09T13:11:10;16.37;;;15.57;;
11531;SDS011;5822;51.000;5.874;2023-10-09T13:13:37;17.13;;;16.23;;
11531;SDS011;5822;51.000;5.874;2023-10-09T13:18:48;17.13;;;16.23;;
11531;SDS011;5822;51.000;5.874;2023-10-09T13:21:27;17.40;;;16.40;;
11531;SDS011;5822;51.000;5.874;2023-10-09T13:23:59;17.17;;;16.27;;
11531;SDS011;5822;51.000;5.874;2023-10-09T13:26:26;17.40;;;16.40;;
11531;SDS011;5822;51.000;5.874;2023-10-09T13:28:56;17.60;;;16.60;;
11531;SDS011;5822;51.000;5.874;2023-10-09T13:31:23;16.95;;;16.05;;
11531;SDS011;5822;51.000;5.874;2023-10-09T13:33:54;17.00;;;16.10;;
11531;SDS011;5822;51.000;5.874;2023-10-09T13:36:20;17.00;;;16.10;;
11531;SDS011;5822;51.000;5.874;2023-10-09T13:38:54;17.33;;;16.40;;
11531;SDS011;5822;51.000;5.874;2023-10-09T13:41:21;17.00;;;16.10;;
11531;SDS011;5822;51.000;5.874;2023-10-09T13:43:50;16.95;;;16.05;;
11531;SDS011;5822;51.000;5.874;2023-10-09T13:46:17;16.70;;;15.80;;
11531;SDS011;5822;51.000;5.874;2023-10-09T13:48:43;17.52;;;16.60;;
11531;SDS011;5822;51.000;5.874;2023-10-09T13:51:10;17.05;;;16.15;;
11531;SDS011;5822;51.000;5.874;2023-10-09T13:53:45;17.73;;;16.73;;
11531;SDS011;5822;51.000;5.874;2023-10-09T13:56:16;18.00;;;17.00;;
11531;SDS011;5822;51.000;5.874;2023-10-09T13:58:50;17.23;;;16.27;;
11531;SDS011;5822;51.000;5.874;2023-10-09T14:01:19;17.02;;;16.13;;
11531;SDS011;5822;51.000;5.874;2023-10-09T14:03:58;16.80;;;15.90;;
11531;SDS011;5822;51.000;5.874;2023-10-09T14:06:25;16.75;;;15.85;;
11531;SDS011;5822;51.000;5.874;2023-10-09T14:09:02;16.90;;;16.00;;
11531;SDS011;5822;51.000;5.874;2023-10-09T14:11:34;16.80;;;15.90;;
11531;SDS011;5822;51.000;5.874;2023-10-09T14:14:04;17.00;;;16.10;;
11531;SDS011;5822;51.000;5.874;2023-10-09T14:16:35;16.80;;;15.90;;
11531;SDS011;5822;51.000;5.874;2023-10-09T14:19:01;17.00;;;16.10;;
11531;SDS011;5822;51.000;5.874;2023-10-09T14:21:32;16.90;;;16.00;;
11531;SDS011;5822;51.000;5.874;2023-10-09T14:24:02;16.73;;;15.82;;
11531;SDS011;5822;51.000;5.874;2023-10-09T14:26:40;16.80;;;15.90;;
11531;SDS011;5822;51.000;5.874;2023-10-09T14:29:06;16.67;;;15.77;;
11531;SDS011;5822;51.000;5.874;2023-10-09T14:31:32;16.80;;;15.90;;
11531;SDS011;5822;51.000;5.874;2023-10-09T14:34:04;17.38;;;16.38;;
11531;SDS011;5822;51.000;5.874;2023-10-09T14:36:30;17.17;;;16.27;;
11531;SDS011;5822;51.000;5.874;2023-10-09T14:38:59;17.48;;;16.48;;
11531;SDS011;5822;51.000;5.874;2023-10-09T14:41:29;17.13;;;16.23;;
11531;SDS011;5822;51.000;5.874;2023-10-09T14:43:58;17.05;;;16.15;;
11531;SDS011;5822;51.000;5.874;2023-10-09T14:46:24;16.33;;;15.52;;
11531;SDS011;5822;51.000;5.874;2023-10-09T14:48:54;16.40;;;15.50;;
11531;SDS011;5822;51.000;5.874;2023-10-09T14:51:23;16.08;;;15.27;;
11531;SDS011;5822;51.000;5.874;2023-10-09T14:53:56;17.13;;;16.23;;
11531;SDS011;5822;51.000;5.874;2023-10-09T14:56:28;16.00;;;15.13;;
11531;SDS011;5822;51.000;5.874;2023-10-09T14:58:58;15.83;;;15.03;;
11531;SDS011;5822;51.000;5.874;2023-10-09T15:01:25;16.58;;;15.68;;
11531;SDS011;5822;51.000;5.874;2023-10-09T15:03:54;17.20;;;16.30;;
11531;SDS011;5822;51.000;5.874;2023-10-09T15:06:22;16.98;;;16.08;;
11531;SDS011;5822;51.000;5.874;2023-10-09T15:08:52;16.80;;;15.90;;
11531;SDS011;5822;51.000;5.874;2023-10-09T15:11:23;16.30;;;15.50;;
11531;SDS011;5822;51.000;5.874;2023-10-09T15:13:50;16.67;;;15.77;;
11531;SDS011;5822;51.000;5.874;2023-10-09T15:16:17;16.40;;;15.50;;
11531;SDS011;5822;51.000;5.874;2023-10-09T15:18:43;16.45;;;15.55;;
11531;SDS011;5822;51.000;5.874;2023-10-09T15:21:09;16.45;;;15.55;;
11531;SDS011;5822;51.000;5.874;2023-10-09T15:23:34;16.70;;;15.80;;
11531;SDS011;5822;51.000;5.874;2023-10-09T15:26:01;16.65;;;15.75;;
11531;SDS011;5822;51.000;5.874;2023-10-09T15:28:27;16.15;;;15.27;;
11531;SDS011;5822;51.000;5.874;2023-10-09T15:30:57;16.10;;;15.20;;
11531;SDS011;5822;51.000;5.874;2023-10-09T15:33:24;16.05;;;15.15;;
11531;SDS011;5822;51.000;5.874;2023-10-09T15:35:55;16.77;;;15.88;;
11531;SDS011;5822;51.000;5.874;2023-10-09T15:38:21;15.90;;;15.10;;
11531;SDS011;5822;51.000;5.874;2023-10-09T15:40:47;16.08;;;15.27;;
11531;SDS011;5822;51.000;5.874;2023-10-09T15:43:12;16.58;;;15.68;;
11531;SDS011;5822;51.000;5.874;2023-10-09T15:45:44;15.80;;;15.00;;